<?xml version="1.0" encoding="UTF-8" standalone="no" ?>
<gpx xmlns="http://www.topografix.com/GPX/1/1" xmlns:xsi="http://www.w3.org/2001/XMLSchema-instance" xsi:schemaLocation="http://www.topografix.com/GPX/1/1 http://www.topografix.com/GPX/1/1/gpx.xsd" version="1.1" creator="VisuGPX - https://www.visugpx.com">
  <metadata>
    <name>Bivouac Anse gros rocher</name>
    <desc><![CDATA[ACP3C  bivouac hautes chaumes 2024]]></desc>
  </metadata>
  <trk>
    <name><![CDATA[Ance gros rocher prabouré août 2024-19476574]]></name>
    <extensions>
      <line xmlns="http://www.topografix.com/GPX/gpx_style/0/2">
        <color>0000FF</color>
        <width>4</width>
      </line>
    </extensions>
    <trkseg>
      <trkpt lat="45.57712" lon="3.87235">
        <ele>1169</ele>
        <time>2024-08-01T11:49:04Z</time>
      </trkpt>
      <trkpt lat="45.57738" lon="3.87223">
        <ele>1170</ele>
        <time>2024-08-01T11:49:26Z</time>
      </trkpt>
      <trkpt lat="45.57785" lon="3.87213">
        <ele>1170</ele>
        <time>2024-08-01T11:50:04Z</time>
      </trkpt>
      <trkpt lat="45.57841" lon="3.87219">
        <ele>1169</ele>
        <time>2024-08-01T11:50:49Z</time>
      </trkpt>
      <trkpt lat="45.57858" lon="3.8723">
        <ele>1169</ele>
        <time>2024-08-01T11:51:04Z</time>
      </trkpt>
      <trkpt lat="45.57881" lon="3.87232">
        <ele>1170</ele>
        <time>2024-08-01T11:51:22Z</time>
      </trkpt>
      <trkpt lat="45.57923" lon="3.87276">
        <ele>1177</ele>
        <time>2024-08-01T11:52:04Z</time>
      </trkpt>
      <trkpt lat="45.57983" lon="3.8728">
        <ele>1176</ele>
        <time>2024-08-01T11:52:52Z</time>
      </trkpt>
      <trkpt lat="45.5803" lon="3.87268">
        <ele>1174</ele>
        <time>2024-08-01T11:53:30Z</time>
      </trkpt>
      <trkpt lat="45.58063" lon="3.87281">
        <ele>1178</ele>
        <time>2024-08-01T11:53:58Z</time>
      </trkpt>
      <trkpt lat="45.58111" lon="3.87261">
        <ele>1176</ele>
        <time>2024-08-01T11:54:38Z</time>
      </trkpt>
      <trkpt lat="45.58143" lon="3.87259">
        <ele>1178</ele>
        <time>2024-08-01T11:55:03Z</time>
      </trkpt>
      <trkpt lat="45.58167" lon="3.87241">
        <ele>1176</ele>
        <time>2024-08-01T11:55:25Z</time>
      </trkpt>
      <trkpt lat="45.58191" lon="3.87234">
        <ele>1176</ele>
        <time>2024-08-01T11:55:45Z</time>
      </trkpt>
      <trkpt lat="45.58233" lon="3.87201">
        <ele>1174</ele>
        <time>2024-08-01T11:56:23Z</time>
      </trkpt>
      <trkpt lat="45.5824" lon="3.872">
        <ele>1174</ele>
        <time>2024-08-01T11:56:29Z</time>
      </trkpt>
      <trkpt lat="45.58233" lon="3.87149">
        <ele>1172</ele>
        <time>2024-08-01T11:56:58Z</time>
      </trkpt>
      <trkpt lat="45.58185" lon="3.87093">
        <ele>1178</ele>
        <time>2024-08-01T11:57:47Z</time>
      </trkpt>
      <trkpt lat="45.58149" lon="3.86986">
        <ele>1194</ele>
        <time>2024-08-01T11:58:54Z</time>
      </trkpt>
      <trkpt lat="45.58161" lon="3.86926">
        <ele>1200</ele>
        <time>2024-08-01T11:59:29Z</time>
      </trkpt>
      <trkpt lat="45.58125" lon="3.8684">
        <ele>1218</ele>
        <time>2024-08-01T12:00:25Z</time>
      </trkpt>
      <trkpt lat="45.58137" lon="3.86617">
        <ele>1249</ele>
        <time>2024-08-01T12:02:30Z</time>
      </trkpt>
      <trkpt lat="45.58173" lon="3.86449">
        <ele>1255</ele>
        <time>2024-08-01T12:04:09Z</time>
      </trkpt>
      <trkpt lat="45.58168" lon="3.86402">
        <ele>1258</ele>
        <time>2024-08-01T12:04:36Z</time>
      </trkpt>
      <trkpt lat="45.58171" lon="3.86389">
        <ele>1258</ele>
        <time>2024-08-01T12:04:43Z</time>
      </trkpt>
      <trkpt lat="45.58171" lon="3.86379">
        <ele>1259</ele>
        <time>2024-08-01T12:04:49Z</time>
      </trkpt>
      <trkpt lat="45.58169" lon="3.8636">
        <ele>1260</ele>
        <time>2024-08-01T12:05:00Z</time>
      </trkpt>
      <trkpt lat="45.58149" lon="3.8627">
        <ele>1270</ele>
        <time>2024-08-01T12:05:53Z</time>
      </trkpt>
      <trkpt lat="45.58146" lon="3.86245">
        <ele>1273</ele>
        <time>2024-08-01T12:06:07Z</time>
      </trkpt>
      <trkpt lat="45.58151" lon="3.86229">
        <ele>1274</ele>
        <time>2024-08-01T12:06:17Z</time>
      </trkpt>
      <trkpt lat="45.58187" lon="3.86199">
        <ele>1275</ele>
        <time>2024-08-01T12:06:50Z</time>
      </trkpt>
      <trkpt lat="45.58219" lon="3.86197">
        <ele>1273</ele>
        <time>2024-08-01T12:07:16Z</time>
      </trkpt>
      <trkpt lat="45.58236" lon="3.86186">
        <ele>1274</ele>
        <time>2024-08-01T12:07:30Z</time>
      </trkpt>
      <trkpt lat="45.58239" lon="3.86185">
        <ele>1274</ele>
        <time>2024-08-01T12:07:33Z</time>
      </trkpt>
      <trkpt lat="45.58242" lon="3.86185">
        <ele>1274</ele>
        <time>2024-08-01T12:07:35Z</time>
      </trkpt>
      <trkpt lat="45.58239" lon="3.86185">
        <ele>1274</ele>
        <time>2024-08-01T12:07:38Z</time>
      </trkpt>
      <trkpt lat="45.58259" lon="3.86178">
        <ele>1275</ele>
        <time>2024-08-01T12:07:54Z</time>
      </trkpt>
      <trkpt lat="45.58337" lon="3.8618">
        <ele>1279</ele>
        <time>2024-08-01T12:08:57Z</time>
      </trkpt>
      <trkpt lat="45.58416" lon="3.86174">
        <ele>1280</ele>
        <time>2024-08-01T12:10:00Z</time>
      </trkpt>
      <trkpt lat="45.58428" lon="3.86169">
        <ele>1280</ele>
        <time>2024-08-01T12:10:10Z</time>
      </trkpt>
      <trkpt lat="45.5846" lon="3.86147">
        <ele>1281</ele>
        <time>2024-08-01T12:10:39Z</time>
      </trkpt>
      <trkpt lat="45.58485" lon="3.86123">
        <ele>1283</ele>
        <time>2024-08-01T12:11:03Z</time>
      </trkpt>
      <trkpt lat="45.58509" lon="3.86096">
        <ele>1285</ele>
        <time>2024-08-01T12:11:27Z</time>
      </trkpt>
      <trkpt lat="45.58532" lon="3.86063">
        <ele>1287</ele>
        <time>2024-08-01T12:11:53Z</time>
      </trkpt>
      <trkpt lat="45.58596" lon="3.85983">
        <ele>1295</ele>
        <time>2024-08-01T12:13:01Z</time>
      </trkpt>
      <trkpt lat="45.58622" lon="3.85962">
        <ele>1298</ele>
        <time>2024-08-01T12:13:25Z</time>
      </trkpt>
      <trkpt lat="45.5865" lon="3.85936">
        <ele>1301</ele>
        <time>2024-08-01T12:13:52Z</time>
      </trkpt>
      <trkpt lat="45.58674" lon="3.85922">
        <ele>1303</ele>
        <time>2024-08-01T12:14:13Z</time>
      </trkpt>
      <trkpt lat="45.58701" lon="3.85916">
        <ele>1304</ele>
        <time>2024-08-01T12:14:35Z</time>
      </trkpt>
      <trkpt lat="45.58737" lon="3.85922">
        <ele>1303</ele>
        <time>2024-08-01T12:15:04Z</time>
      </trkpt>
      <trkpt lat="45.58756" lon="3.8593">
        <ele>1302</ele>
        <time>2024-08-01T12:15:19Z</time>
      </trkpt>
      <trkpt lat="45.58769" lon="3.85945">
        <ele>1301</ele>
        <time>2024-08-01T12:15:33Z</time>
      </trkpt>
      <trkpt lat="45.58777" lon="3.85976">
        <ele>1297</ele>
        <time>2024-08-01T12:15:51Z</time>
      </trkpt>
      <trkpt lat="45.58788" lon="3.85994">
        <ele>1296</ele>
        <time>2024-08-01T12:16:05Z</time>
      </trkpt>
      <trkpt lat="45.5883" lon="3.85996">
        <ele>1299</ele>
        <time>2024-08-01T12:16:38Z</time>
      </trkpt>
      <trkpt lat="45.58848" lon="3.85992">
        <ele>1299</ele>
        <time>2024-08-01T12:16:53Z</time>
      </trkpt>
      <trkpt lat="45.58853" lon="3.8599">
        <ele>1299</ele>
        <time>2024-08-01T12:16:57Z</time>
      </trkpt>
      <trkpt lat="45.58853" lon="3.85978">
        <ele>1300</ele>
        <time>2024-08-01T12:17:04Z</time>
      </trkpt>
      <trkpt lat="45.58864" lon="3.85921">
        <ele>1304</ele>
        <time>2024-08-01T12:17:37Z</time>
      </trkpt>
      <trkpt lat="45.58889" lon="3.85838">
        <ele>1317</ele>
        <time>2024-08-01T12:18:28Z</time>
      </trkpt>
      <trkpt lat="45.5892" lon="3.85784">
        <ele>1322</ele>
        <time>2024-08-01T12:19:07Z</time>
      </trkpt>
      <trkpt lat="45.58957" lon="3.85701">
        <ele>1326</ele>
        <time>2024-08-01T12:20:02Z</time>
      </trkpt>
      <trkpt lat="45.58962" lon="3.85675">
        <ele>1329</ele>
        <time>2024-08-01T12:20:17Z</time>
      </trkpt>
      <trkpt lat="45.58987" lon="3.85621">
        <ele>1329</ele>
        <time>2024-08-01T12:20:53Z</time>
      </trkpt>
      <trkpt lat="45.58992" lon="3.85594">
        <ele>1331</ele>
        <time>2024-08-01T12:21:09Z</time>
      </trkpt>
      <trkpt lat="45.58995" lon="3.85526">
        <ele>1335</ele>
        <time>2024-08-01T12:21:47Z</time>
      </trkpt>
      <trkpt lat="45.58994" lon="3.85487">
        <ele>1338</ele>
        <time>2024-08-01T12:22:09Z</time>
      </trkpt>
      <trkpt lat="45.58986" lon="3.85469">
        <ele>1340</ele>
        <time>2024-08-01T12:22:21Z</time>
      </trkpt>
      <trkpt lat="45.58982" lon="3.85453">
        <ele>1342</ele>
        <time>2024-08-01T12:22:30Z</time>
      </trkpt>
      <trkpt lat="45.58983" lon="3.85433">
        <ele>1342</ele>
        <time>2024-08-01T12:22:42Z</time>
      </trkpt>
      <trkpt lat="45.58988" lon="3.85379">
        <ele>1341</ele>
        <time>2024-08-01T12:23:12Z</time>
      </trkpt>
      <trkpt lat="45.58983" lon="3.8533">
        <ele>1340</ele>
        <time>2024-08-01T12:23:40Z</time>
      </trkpt>
      <trkpt lat="45.58973" lon="3.85265">
        <ele>1343</ele>
        <time>2024-08-01T12:24:17Z</time>
      </trkpt>
      <trkpt lat="45.58976" lon="3.85234">
        <ele>1342</ele>
        <time>2024-08-01T12:24:35Z</time>
      </trkpt>
      <trkpt lat="45.58974" lon="3.85209">
        <ele>1343</ele>
        <time>2024-08-01T12:24:49Z</time>
      </trkpt>
      <trkpt lat="45.58975" lon="3.85191">
        <ele>1343</ele>
        <time>2024-08-01T12:24:59Z</time>
      </trkpt>
      <trkpt lat="45.58971" lon="3.85154">
        <ele>1345</ele>
        <time>2024-08-01T12:25:20Z</time>
      </trkpt>
      <trkpt lat="45.58979" lon="3.85097">
        <ele>1346</ele>
        <time>2024-08-01T12:25:52Z</time>
      </trkpt>
      <trkpt lat="45.58979" lon="3.85067">
        <ele>1347</ele>
        <time>2024-08-01T12:26:09Z</time>
      </trkpt>
      <trkpt lat="45.58974" lon="3.85016">
        <ele>1350</ele>
        <time>2024-08-01T12:26:38Z</time>
      </trkpt>
      <trkpt lat="45.58983" lon="3.84975">
        <ele>1348</ele>
        <time>2024-08-01T12:27:02Z</time>
      </trkpt>
      <trkpt lat="45.58994" lon="3.84905">
        <ele>1345</ele>
        <time>2024-08-01T12:27:42Z</time>
      </trkpt>
      <trkpt lat="45.59004" lon="3.84865">
        <ele>1342</ele>
        <time>2024-08-01T12:28:06Z</time>
      </trkpt>
      <trkpt lat="45.59005" lon="3.84869">
        <ele>1342</ele>
        <time>2024-08-01T12:28:09Z</time>
      </trkpt>
      <trkpt lat="45.58989" lon="3.8481">
        <ele>1343</ele>
        <time>2024-08-01T12:28:44Z</time>
      </trkpt>
      <trkpt lat="45.58979" lon="3.84781">
        <ele>1345</ele>
        <time>2024-08-01T12:29:02Z</time>
      </trkpt>
      <trkpt lat="45.58974" lon="3.84751">
        <ele>1346</ele>
        <time>2024-08-01T12:29:19Z</time>
      </trkpt>
      <trkpt lat="45.58981" lon="3.84732">
        <ele>1349</ele>
        <time>2024-08-01T12:29:31Z</time>
      </trkpt>
      <trkpt lat="45.58983" lon="3.84727">
        <ele>1350</ele>
        <time>2024-08-01T12:29:35Z</time>
      </trkpt>
      <trkpt lat="45.58995" lon="3.84711">
        <ele>1352</ele>
        <time>2024-08-01T12:29:48Z</time>
      </trkpt>
      <trkpt lat="45.59008" lon="3.84704">
        <ele>1354</ele>
        <time>2024-08-01T12:29:59Z</time>
      </trkpt>
      <trkpt lat="45.59029" lon="3.84711">
        <ele>1354</ele>
        <time>2024-08-01T12:30:16Z</time>
      </trkpt>
      <trkpt lat="45.59056" lon="3.8474">
        <ele>1351</ele>
        <time>2024-08-01T12:30:43Z</time>
      </trkpt>
      <trkpt lat="45.59072" lon="3.84761">
        <ele>1350</ele>
        <time>2024-08-01T12:31:01Z</time>
      </trkpt>
      <trkpt lat="45.5909" lon="3.8478">
        <ele>1349</ele>
        <time>2024-08-01T12:31:19Z</time>
      </trkpt>
      <trkpt lat="45.59103" lon="3.84785">
        <ele>1349</ele>
        <time>2024-08-01T12:31:29Z</time>
      </trkpt>
      <trkpt lat="45.59123" lon="3.84777">
        <ele>1351</ele>
        <time>2024-08-01T12:31:46Z</time>
      </trkpt>
      <trkpt lat="45.59142" lon="3.84742">
        <ele>1355</ele>
        <time>2024-08-01T12:32:11Z</time>
      </trkpt>
      <trkpt lat="45.59148" lon="3.84727">
        <ele>1357</ele>
        <time>2024-08-01T12:32:21Z</time>
      </trkpt>
      <trkpt lat="45.59163" lon="3.84701">
        <ele>1360</ele>
        <time>2024-08-01T12:32:39Z</time>
      </trkpt>
      <trkpt lat="45.59171" lon="3.84693">
        <ele>1361</ele>
        <time>2024-08-01T12:32:47Z</time>
      </trkpt>
      <trkpt lat="45.59183" lon="3.84683">
        <ele>1362</ele>
        <time>2024-08-01T12:32:58Z</time>
      </trkpt>
      <trkpt lat="45.59211" lon="3.84664">
        <ele>1364</ele>
        <time>2024-08-01T12:33:23Z</time>
      </trkpt>
      <trkpt lat="45.59223" lon="3.84651">
        <ele>1365</ele>
        <time>2024-08-01T12:33:35Z</time>
      </trkpt>
      <trkpt lat="45.59232" lon="3.84628">
        <ele>1365</ele>
        <time>2024-08-01T12:33:50Z</time>
      </trkpt>
      <trkpt lat="45.59249" lon="3.8457">
        <ele>1366</ele>
        <time>2024-08-01T12:34:25Z</time>
      </trkpt>
      <trkpt lat="45.59251" lon="3.84563">
        <ele>1366</ele>
        <time>2024-08-01T12:34:29Z</time>
      </trkpt>
      <trkpt lat="45.59249" lon="3.8457">
        <ele>1366</ele>
        <time>2024-08-01T12:34:34Z</time>
      </trkpt>
      <trkpt lat="45.59263" lon="3.84586">
        <ele>1367</ele>
        <time>2024-08-01T12:34:48Z</time>
      </trkpt>
      <trkpt lat="45.59287" lon="3.84552">
        <ele>1367</ele>
        <time>2024-08-01T12:35:15Z</time>
      </trkpt>
      <trkpt lat="45.59312" lon="3.84564">
        <ele>1369</ele>
        <time>2024-08-01T12:35:36Z</time>
      </trkpt>
      <trkpt lat="45.59336" lon="3.84567">
        <ele>1370</ele>
        <time>2024-08-01T12:35:55Z</time>
      </trkpt>
      <trkpt lat="45.59367" lon="3.84561">
        <ele>1375</ele>
        <time>2024-08-01T12:36:21Z</time>
      </trkpt>
      <trkpt lat="45.59455" lon="3.84569">
        <ele>1391</ele>
        <time>2024-08-01T12:37:31Z</time>
      </trkpt>
      <trkpt lat="45.59539" lon="3.84592">
        <ele>1403</ele>
        <time>2024-08-01T12:38:40Z</time>
      </trkpt>
      <trkpt lat="45.59607" lon="3.84622">
        <ele>1406</ele>
        <time>2024-08-01T12:39:37Z</time>
      </trkpt>
      <trkpt lat="45.59678" lon="3.84634">
        <ele>1407</ele>
        <time>2024-08-01T12:40:34Z</time>
      </trkpt>
      <trkpt lat="45.59728" lon="3.84644">
        <ele>1408</ele>
        <time>2024-08-01T12:41:14Z</time>
      </trkpt>
      <trkpt lat="45.59735" lon="3.84643">
        <ele>1408</ele>
        <time>2024-08-01T12:41:20Z</time>
      </trkpt>
      <trkpt lat="45.59745" lon="3.84636">
        <ele>1409</ele>
        <time>2024-08-01T12:41:29Z</time>
      </trkpt>
      <trkpt lat="45.59756" lon="3.84619">
        <ele>1410</ele>
        <time>2024-08-01T12:41:42Z</time>
      </trkpt>
      <trkpt lat="45.59771" lon="3.84606">
        <ele>1410</ele>
        <time>2024-08-01T12:41:56Z</time>
      </trkpt>
      <trkpt lat="45.5978" lon="3.84602">
        <ele>1410</ele>
        <time>2024-08-01T12:42:03Z</time>
      </trkpt>
      <trkpt lat="45.59806" lon="3.84598">
        <ele>1409</ele>
        <time>2024-08-01T12:42:24Z</time>
      </trkpt>
      <trkpt lat="45.5985" lon="3.84591">
        <ele>1408</ele>
        <time>2024-08-01T12:43:00Z</time>
      </trkpt>
      <trkpt lat="45.59867" lon="3.84585">
        <ele>1406</ele>
        <time>2024-08-01T12:43:14Z</time>
      </trkpt>
      <trkpt lat="45.59896" lon="3.84585">
        <ele>1403</ele>
        <time>2024-08-01T12:43:37Z</time>
      </trkpt>
      <trkpt lat="45.59917" lon="3.84589">
        <ele>1400</ele>
        <time>2024-08-01T12:43:54Z</time>
      </trkpt>
      <trkpt lat="45.59993" lon="3.84582">
        <ele>1394</ele>
        <time>2024-08-01T12:44:55Z</time>
      </trkpt>
      <trkpt lat="45.60002" lon="3.84579">
        <ele>1393</ele>
        <time>2024-08-01T12:45:02Z</time>
      </trkpt>
      <trkpt lat="45.60018" lon="3.84572">
        <ele>1393</ele>
        <time>2024-08-01T12:45:16Z</time>
      </trkpt>
      <trkpt lat="45.60028" lon="3.84564">
        <ele>1393</ele>
        <time>2024-08-01T12:45:25Z</time>
      </trkpt>
      <trkpt lat="45.60037" lon="3.84551">
        <ele>1392</ele>
        <time>2024-08-01T12:45:35Z</time>
      </trkpt>
      <trkpt lat="45.60046" lon="3.84533">
        <ele>1392</ele>
        <time>2024-08-01T12:45:48Z</time>
      </trkpt>
      <trkpt lat="45.60056" lon="3.8452">
        <ele>1392</ele>
        <time>2024-08-01T12:45:58Z</time>
      </trkpt>
      <trkpt lat="45.60061" lon="3.84521">
        <ele>1392</ele>
        <time>2024-08-01T12:46:02Z</time>
      </trkpt>
      <trkpt lat="45.60071" lon="3.84532">
        <ele>1391</ele>
        <time>2024-08-01T12:46:13Z</time>
      </trkpt>
      <trkpt lat="45.60073" lon="3.8454">
        <ele>1391</ele>
        <time>2024-08-01T12:46:17Z</time>
      </trkpt>
      <trkpt lat="45.60079" lon="3.84583">
        <ele>1390</ele>
        <time>2024-08-01T12:46:42Z</time>
      </trkpt>
      <trkpt lat="45.60086" lon="3.84616">
        <ele>1388</ele>
        <time>2024-08-01T12:47:01Z</time>
      </trkpt>
      <trkpt lat="45.60098" lon="3.84637">
        <ele>1388</ele>
        <time>2024-08-01T12:47:16Z</time>
      </trkpt>
      <trkpt lat="45.60114" lon="3.84653">
        <ele>1388</ele>
        <time>2024-08-01T12:47:32Z</time>
      </trkpt>
      <trkpt lat="45.60131" lon="3.84656">
        <ele>1389</ele>
        <time>2024-08-01T12:47:46Z</time>
      </trkpt>
      <trkpt lat="45.60172" lon="3.8464">
        <ele>1393</ele>
        <time>2024-08-01T12:48:20Z</time>
      </trkpt>
      <trkpt lat="45.60188" lon="3.84631">
        <ele>1394</ele>
        <time>2024-08-01T12:48:34Z</time>
      </trkpt>
      <trkpt lat="45.60228" lon="3.84594">
        <ele>1398</ele>
        <time>2024-08-01T12:49:12Z</time>
      </trkpt>
      <trkpt lat="45.60288" lon="3.84551">
        <ele>1399</ele>
        <time>2024-08-01T12:50:05Z</time>
      </trkpt>
      <trkpt lat="45.60339" lon="3.84509">
        <ele>1400</ele>
        <time>2024-08-01T12:50:53Z</time>
      </trkpt>
      <trkpt lat="45.60373" lon="3.84476">
        <ele>1401</ele>
        <time>2024-08-01T12:51:25Z</time>
      </trkpt>
      <trkpt lat="45.60378" lon="3.84464">
        <ele>1401</ele>
        <time>2024-08-01T12:51:33Z</time>
      </trkpt>
      <trkpt lat="45.60383" lon="3.84446">
        <ele>1402</ele>
        <time>2024-08-01T12:51:44Z</time>
      </trkpt>
      <trkpt lat="45.60389" lon="3.84438">
        <ele>1402</ele>
        <time>2024-08-01T12:51:51Z</time>
      </trkpt>
      <trkpt lat="45.60398" lon="3.84434">
        <ele>1403</ele>
        <time>2024-08-01T12:51:58Z</time>
      </trkpt>
      <trkpt lat="45.60418" lon="3.84432">
        <ele>1402</ele>
        <time>2024-08-01T12:52:14Z</time>
      </trkpt>
      <trkpt lat="45.60473" lon="3.8442">
        <ele>1404</ele>
        <time>2024-08-01T12:52:59Z</time>
      </trkpt>
      <trkpt lat="45.60543" lon="3.84399">
        <ele>1406</ele>
        <time>2024-08-01T12:53:56Z</time>
      </trkpt>
      <trkpt lat="45.60634" lon="3.8438">
        <ele>1407</ele>
        <time>2024-08-01T12:55:10Z</time>
      </trkpt>
      <trkpt lat="45.60718" lon="3.84355">
        <ele>1413</ele>
        <time>2024-08-01T12:56:18Z</time>
      </trkpt>
      <trkpt lat="45.60733" lon="3.84354">
        <ele>1413</ele>
        <time>2024-08-01T12:56:30Z</time>
      </trkpt>
      <trkpt lat="45.60747" lon="3.84354">
        <ele>1414</ele>
        <time>2024-08-01T12:56:42Z</time>
      </trkpt>
      <trkpt lat="45.60744" lon="3.84346">
        <ele>1415</ele>
        <time>2024-08-01T12:56:47Z</time>
      </trkpt>
      <trkpt lat="45.60696" lon="3.84328">
        <ele>1414</ele>
        <time>2024-08-01T12:57:26Z</time>
      </trkpt>
      <trkpt lat="45.60676" lon="3.84314">
        <ele>1413</ele>
        <time>2024-08-01T12:57:44Z</time>
      </trkpt>
      <trkpt lat="45.60651" lon="3.84285">
        <ele>1414</ele>
        <time>2024-08-01T12:58:10Z</time>
      </trkpt>
      <trkpt lat="45.60631" lon="3.84254">
        <ele>1415</ele>
        <time>2024-08-01T12:58:34Z</time>
      </trkpt>
      <trkpt lat="45.60612" lon="3.84214">
        <ele>1413</ele>
        <time>2024-08-01T12:59:01Z</time>
      </trkpt>
      <trkpt lat="45.606" lon="3.84173">
        <ele>1412</ele>
        <time>2024-08-01T12:59:26Z</time>
      </trkpt>
      <trkpt lat="45.60586" lon="3.84158">
        <ele>1411</ele>
        <time>2024-08-01T12:59:40Z</time>
      </trkpt>
      <trkpt lat="45.60572" lon="3.84129">
        <ele>1411</ele>
        <time>2024-08-01T12:59:59Z</time>
      </trkpt>
      <trkpt lat="45.60536" lon="3.84087">
        <ele>1410</ele>
        <time>2024-08-01T13:00:37Z</time>
      </trkpt>
      <trkpt lat="45.60521" lon="3.84051">
        <ele>1409</ele>
        <time>2024-08-01T13:01:00Z</time>
      </trkpt>
      <trkpt lat="45.60502" lon="3.83997">
        <ele>1406</ele>
        <time>2024-08-01T13:01:34Z</time>
      </trkpt>
      <trkpt lat="45.60484" lon="3.83936">
        <ele>1405</ele>
        <time>2024-08-01T13:02:11Z</time>
      </trkpt>
      <trkpt lat="45.60479" lon="3.83908">
        <ele>1405</ele>
        <time>2024-08-01T13:02:27Z</time>
      </trkpt>
      <trkpt lat="45.60477" lon="3.83857">
        <ele>1406</ele>
        <time>2024-08-01T13:02:56Z</time>
      </trkpt>
      <trkpt lat="45.6047" lon="3.83792">
        <ele>1407</ele>
        <time>2024-08-01T13:03:33Z</time>
      </trkpt>
      <trkpt lat="45.60464" lon="3.83753">
        <ele>1407</ele>
        <time>2024-08-01T13:03:55Z</time>
      </trkpt>
      <trkpt lat="45.6044" lon="3.83639">
        <ele>1406</ele>
        <time>2024-08-01T13:05:02Z</time>
      </trkpt>
      <trkpt lat="45.60439" lon="3.83616">
        <ele>1405</ele>
        <time>2024-08-01T13:05:15Z</time>
      </trkpt>
      <trkpt lat="45.60444" lon="3.83536">
        <ele>1401</ele>
        <time>2024-08-01T13:06:00Z</time>
      </trkpt>
      <trkpt lat="45.60445" lon="3.83505">
        <ele>1399</ele>
        <time>2024-08-01T13:06:17Z</time>
      </trkpt>
      <trkpt lat="45.60462" lon="3.83441">
        <ele>1395</ele>
        <time>2024-08-01T13:06:55Z</time>
      </trkpt>
      <trkpt lat="45.60477" lon="3.83406">
        <ele>1392</ele>
        <time>2024-08-01T13:07:18Z</time>
      </trkpt>
      <trkpt lat="45.60496" lon="3.83369">
        <ele>1388</ele>
        <time>2024-08-01T13:07:44Z</time>
      </trkpt>
      <trkpt lat="45.60515" lon="3.83312">
        <ele>1382</ele>
        <time>2024-08-01T13:08:19Z</time>
      </trkpt>
      <trkpt lat="45.60532" lon="3.8323">
        <ele>1373</ele>
        <time>2024-08-01T13:09:07Z</time>
      </trkpt>
      <trkpt lat="45.60533" lon="3.83216">
        <ele>1373</ele>
        <time>2024-08-01T13:09:15Z</time>
      </trkpt>
      <trkpt lat="45.60526" lon="3.8316">
        <ele>1370</ele>
        <time>2024-08-01T13:09:47Z</time>
      </trkpt>
      <trkpt lat="45.60528" lon="3.83116">
        <ele>1366</ele>
        <time>2024-08-01T13:10:12Z</time>
      </trkpt>
      <trkpt lat="45.60541" lon="3.83071">
        <ele>1362</ele>
        <time>2024-08-01T13:10:39Z</time>
      </trkpt>
      <trkpt lat="45.60571" lon="3.83014">
        <ele>1356</ele>
        <time>2024-08-01T13:11:19Z</time>
      </trkpt>
      <trkpt lat="45.60592" lon="3.82997">
        <ele>1353</ele>
        <time>2024-08-01T13:11:38Z</time>
      </trkpt>
      <trkpt lat="45.606" lon="3.82978">
        <ele>1349</ele>
        <time>2024-08-01T13:11:51Z</time>
      </trkpt>
      <trkpt lat="45.60604" lon="3.82962">
        <ele>1346</ele>
        <time>2024-08-01T13:12:00Z</time>
      </trkpt>
      <trkpt lat="45.60602" lon="3.82947">
        <ele>1345</ele>
        <time>2024-08-01T13:12:09Z</time>
      </trkpt>
      <trkpt lat="45.60598" lon="3.82939">
        <ele>1344</ele>
        <time>2024-08-01T13:12:14Z</time>
      </trkpt>
      <trkpt lat="45.60546" lon="3.82891">
        <ele>1337</ele>
        <time>2024-08-01T13:13:04Z</time>
      </trkpt>
      <trkpt lat="45.60526" lon="3.82876">
        <ele>1334</ele>
        <time>2024-08-01T13:13:22Z</time>
      </trkpt>
      <trkpt lat="45.60463" lon="3.82831">
        <ele>1326</ele>
        <time>2024-08-01T13:14:18Z</time>
      </trkpt>
      <trkpt lat="45.60366" lon="3.82766">
        <ele>1306</ele>
        <time>2024-08-01T13:15:44Z</time>
      </trkpt>
      <trkpt lat="45.60351" lon="3.82763">
        <ele>1303</ele>
        <time>2024-08-01T13:15:56Z</time>
      </trkpt>
      <trkpt lat="45.60316" lon="3.82745">
        <ele>1296</ele>
        <time>2024-08-01T13:16:26Z</time>
      </trkpt>
      <trkpt lat="45.60283" lon="3.82742">
        <ele>1292</ele>
        <time>2024-08-01T13:16:53Z</time>
      </trkpt>
      <trkpt lat="45.60256" lon="3.8273">
        <ele>1287</ele>
        <time>2024-08-01T13:17:15Z</time>
      </trkpt>
      <trkpt lat="45.60225" lon="3.82711">
        <ele>1281</ele>
        <time>2024-08-01T13:17:42Z</time>
      </trkpt>
      <trkpt lat="45.60216" lon="3.82687">
        <ele>1276</ele>
        <time>2024-08-01T13:17:57Z</time>
      </trkpt>
      <trkpt lat="45.60215" lon="3.82666">
        <ele>1272</ele>
        <time>2024-08-01T13:18:09Z</time>
      </trkpt>
      <trkpt lat="45.60216" lon="3.82655">
        <ele>1271</ele>
        <time>2024-08-01T13:18:15Z</time>
      </trkpt>
      <trkpt lat="45.60216" lon="3.82649">
        <ele>1270</ele>
        <time>2024-08-01T13:18:19Z</time>
      </trkpt>
      <trkpt lat="45.60194" lon="3.82662">
        <ele>1270</ele>
        <time>2024-08-01T13:18:38Z</time>
      </trkpt>
      <trkpt lat="45.60184" lon="3.82671">
        <ele>1271</ele>
        <time>2024-08-01T13:18:47Z</time>
      </trkpt>
      <trkpt lat="45.60166" lon="3.8268">
        <ele>1271</ele>
        <time>2024-08-01T13:19:03Z</time>
      </trkpt>
      <trkpt lat="45.60149" lon="3.82684">
        <ele>1272</ele>
        <time>2024-08-01T13:19:16Z</time>
      </trkpt>
      <trkpt lat="45.60126" lon="3.82681">
        <ele>1271</ele>
        <time>2024-08-01T13:19:35Z</time>
      </trkpt>
      <trkpt lat="45.60113" lon="3.82686">
        <ele>1271</ele>
        <time>2024-08-01T13:19:46Z</time>
      </trkpt>
      <trkpt lat="45.601" lon="3.82697">
        <ele>1272</ele>
        <time>2024-08-01T13:19:58Z</time>
      </trkpt>
      <trkpt lat="45.60094" lon="3.82713">
        <ele>1274</ele>
        <time>2024-08-01T13:20:08Z</time>
      </trkpt>
      <trkpt lat="45.60082" lon="3.82762">
        <ele>1280</ele>
        <time>2024-08-01T13:20:37Z</time>
      </trkpt>
      <trkpt lat="45.60071" lon="3.82817">
        <ele>1286</ele>
        <time>2024-08-01T13:21:09Z</time>
      </trkpt>
      <trkpt lat="45.60067" lon="3.82826">
        <ele>1286</ele>
        <time>2024-08-01T13:21:15Z</time>
      </trkpt>
      <trkpt lat="45.60043" lon="3.82866">
        <ele>1287</ele>
        <time>2024-08-01T13:21:45Z</time>
      </trkpt>
      <trkpt lat="45.60008" lon="3.82916">
        <ele>1289</ele>
        <time>2024-08-01T13:22:24Z</time>
      </trkpt>
      <trkpt lat="45.5998" lon="3.82933">
        <ele>1287</ele>
        <time>2024-08-01T13:22:49Z</time>
      </trkpt>
      <trkpt lat="45.59922" lon="3.82986">
        <ele>1286</ele>
        <time>2024-08-01T13:23:44Z</time>
      </trkpt>
      <trkpt lat="45.59911" lon="3.83001">
        <ele>1287</ele>
        <time>2024-08-01T13:23:56Z</time>
      </trkpt>
      <trkpt lat="45.59874" lon="3.83034">
        <ele>1290</ele>
        <time>2024-08-01T13:24:31Z</time>
      </trkpt>
      <trkpt lat="45.5986" lon="3.8305">
        <ele>1292</ele>
        <time>2024-08-01T13:24:45Z</time>
      </trkpt>
      <trkpt lat="45.59846" lon="3.83072">
        <ele>1295</ele>
        <time>2024-08-01T13:25:02Z</time>
      </trkpt>
      <trkpt lat="45.59827" lon="3.83087">
        <ele>1295</ele>
        <time>2024-08-01T13:25:19Z</time>
      </trkpt>
      <trkpt lat="45.59783" lon="3.83128">
        <ele>1299</ele>
        <time>2024-08-01T13:26:01Z</time>
      </trkpt>
      <trkpt lat="45.59699" lon="3.83218">
        <ele>1309</ele>
        <time>2024-08-01T13:27:25Z</time>
      </trkpt>
      <trkpt lat="45.59674" lon="3.83233">
        <ele>1308</ele>
        <time>2024-08-01T13:27:47Z</time>
      </trkpt>
      <trkpt lat="45.59662" lon="3.83246">
        <ele>1308</ele>
        <time>2024-08-01T13:27:59Z</time>
      </trkpt>
      <trkpt lat="45.59647" lon="3.83271">
        <ele>1306</ele>
        <time>2024-08-01T13:28:17Z</time>
      </trkpt>
      <trkpt lat="45.59644" lon="3.83288">
        <ele>1308</ele>
        <time>2024-08-01T13:28:27Z</time>
      </trkpt>
      <trkpt lat="45.59646" lon="3.83341">
        <ele>1318</ele>
        <time>2024-08-01T13:28:57Z</time>
      </trkpt>
      <trkpt lat="45.59642" lon="3.83372">
        <ele>1320</ele>
        <time>2024-08-01T13:29:15Z</time>
      </trkpt>
      <trkpt lat="45.59641" lon="3.83425">
        <ele>1325</ele>
        <time>2024-08-01T13:29:44Z</time>
      </trkpt>
      <trkpt lat="45.59639" lon="3.83437">
        <ele>1325</ele>
        <time>2024-08-01T13:29:51Z</time>
      </trkpt>
      <trkpt lat="45.59627" lon="3.83471">
        <ele>1322</ele>
        <time>2024-08-01T13:30:13Z</time>
      </trkpt>
      <trkpt lat="45.59621" lon="3.83517">
        <ele>1322</ele>
        <time>2024-08-01T13:30:39Z</time>
      </trkpt>
      <trkpt lat="45.59596" lon="3.83599">
        <ele>1315</ele>
        <time>2024-08-01T13:31:29Z</time>
      </trkpt>
      <trkpt lat="45.59588" lon="3.83635">
        <ele>1313</ele>
        <time>2024-08-01T13:31:50Z</time>
      </trkpt>
      <trkpt lat="45.59577" lon="3.83662">
        <ele>1309</ele>
        <time>2024-08-01T13:32:08Z</time>
      </trkpt>
      <trkpt lat="45.59569" lon="3.83688">
        <ele>1308</ele>
        <time>2024-08-01T13:32:24Z</time>
      </trkpt>
      <trkpt lat="45.5956" lon="3.83754">
        <ele>1312</ele>
        <time>2024-08-01T13:33:01Z</time>
      </trkpt>
      <trkpt lat="45.59551" lon="3.8378">
        <ele>1312</ele>
        <time>2024-08-01T13:33:17Z</time>
      </trkpt>
      <trkpt lat="45.59536" lon="3.83849">
        <ele>1315</ele>
        <time>2024-08-01T13:33:58Z</time>
      </trkpt>
      <trkpt lat="45.59524" lon="3.83886">
        <ele>1315</ele>
        <time>2024-08-01T13:34:21Z</time>
      </trkpt>
      <trkpt lat="45.59514" lon="3.83906">
        <ele>1315</ele>
        <time>2024-08-01T13:34:35Z</time>
      </trkpt>
      <trkpt lat="45.59489" lon="3.83944">
        <ele>1313</ele>
        <time>2024-08-01T13:35:04Z</time>
      </trkpt>
      <trkpt lat="45.59479" lon="3.83969">
        <ele>1314</ele>
        <time>2024-08-01T13:35:20Z</time>
      </trkpt>
      <trkpt lat="45.59471" lon="3.8401">
        <ele>1319</ele>
        <time>2024-08-01T13:35:44Z</time>
      </trkpt>
      <trkpt lat="45.59466" lon="3.84021">
        <ele>1319</ele>
        <time>2024-08-01T13:35:51Z</time>
      </trkpt>
      <trkpt lat="45.59438" lon="3.84055">
        <ele>1320</ele>
        <time>2024-08-01T13:36:21Z</time>
      </trkpt>
      <trkpt lat="45.59431" lon="3.8407">
        <ele>1321</ele>
        <time>2024-08-01T13:36:31Z</time>
      </trkpt>
      <trkpt lat="45.5941" lon="3.84099">
        <ele>1324</ele>
        <time>2024-08-01T13:36:54Z</time>
      </trkpt>
      <trkpt lat="45.59399" lon="3.84125">
        <ele>1328</ele>
        <time>2024-08-01T13:37:11Z</time>
      </trkpt>
      <trkpt lat="45.59393" lon="3.84134">
        <ele>1329</ele>
        <time>2024-08-01T13:37:18Z</time>
      </trkpt>
      <trkpt lat="45.59388" lon="3.8414">
        <ele>1330</ele>
        <time>2024-08-01T13:37:23Z</time>
      </trkpt>
      <trkpt lat="45.59383" lon="3.84151">
        <ele>1332</ele>
        <time>2024-08-01T13:37:31Z</time>
      </trkpt>
      <trkpt lat="45.59371" lon="3.84159">
        <ele>1332</ele>
        <time>2024-08-01T13:37:41Z</time>
      </trkpt>
      <trkpt lat="45.59366" lon="3.84169">
        <ele>1333</ele>
        <time>2024-08-01T13:37:48Z</time>
      </trkpt>
      <trkpt lat="45.59363" lon="3.84182">
        <ele>1335</ele>
        <time>2024-08-01T13:37:56Z</time>
      </trkpt>
      <trkpt lat="45.59361" lon="3.84206">
        <ele>1338</ele>
        <time>2024-08-01T13:38:09Z</time>
      </trkpt>
      <trkpt lat="45.59364" lon="3.84259">
        <ele>1345</ele>
        <time>2024-08-01T13:38:39Z</time>
      </trkpt>
      <trkpt lat="45.59362" lon="3.84267">
        <ele>1345</ele>
        <time>2024-08-01T13:38:44Z</time>
      </trkpt>
      <trkpt lat="45.5934" lon="3.84291">
        <ele>1346</ele>
        <time>2024-08-01T13:39:06Z</time>
      </trkpt>
      <trkpt lat="45.59331" lon="3.84303">
        <ele>1347</ele>
        <time>2024-08-01T13:39:16Z</time>
      </trkpt>
      <trkpt lat="45.59316" lon="3.84334">
        <ele>1352</ele>
        <time>2024-08-01T13:39:37Z</time>
      </trkpt>
      <trkpt lat="45.59308" lon="3.84344">
        <ele>1354</ele>
        <time>2024-08-01T13:39:45Z</time>
      </trkpt>
      <trkpt lat="45.593" lon="3.84346">
        <ele>1355</ele>
        <time>2024-08-01T13:39:52Z</time>
      </trkpt>
      <trkpt lat="45.59301" lon="3.84353">
        <ele>1355</ele>
        <time>2024-08-01T13:39:56Z</time>
      </trkpt>
      <trkpt lat="45.59298" lon="3.84366">
        <ele>1356</ele>
        <time>2024-08-01T13:40:04Z</time>
      </trkpt>
      <trkpt lat="45.59301" lon="3.84353">
        <ele>1355</ele>
        <time>2024-08-01T13:40:11Z</time>
      </trkpt>
      <trkpt lat="45.593" lon="3.84346">
        <ele>1355</ele>
        <time>2024-08-01T13:40:15Z</time>
      </trkpt>
      <trkpt lat="45.59288" lon="3.84299">
        <ele>1352</ele>
        <time>2024-08-01T13:40:43Z</time>
      </trkpt>
      <trkpt lat="45.59274" lon="3.84262">
        <ele>1351</ele>
        <time>2024-08-01T13:41:07Z</time>
      </trkpt>
      <trkpt lat="45.59267" lon="3.84231">
        <ele>1350</ele>
        <time>2024-08-01T13:41:25Z</time>
      </trkpt>
      <trkpt lat="45.59259" lon="3.8418">
        <ele>1347</ele>
        <time>2024-08-01T13:41:54Z</time>
      </trkpt>
      <trkpt lat="45.59259" lon="3.84143">
        <ele>1344</ele>
        <time>2024-08-01T13:42:15Z</time>
      </trkpt>
      <trkpt lat="45.59254" lon="3.84114">
        <ele>1343</ele>
        <time>2024-08-01T13:42:32Z</time>
      </trkpt>
      <trkpt lat="45.59226" lon="3.84013">
        <ele>1343</ele>
        <time>2024-08-01T13:43:33Z</time>
      </trkpt>
      <trkpt lat="45.59215" lon="3.8399">
        <ele>1346</ele>
        <time>2024-08-01T13:43:48Z</time>
      </trkpt>
      <trkpt lat="45.59209" lon="3.83968">
        <ele>1347</ele>
        <time>2024-08-01T13:44:02Z</time>
      </trkpt>
      <trkpt lat="45.59205" lon="3.83912">
        <ele>1344</ele>
        <time>2024-08-01T13:44:33Z</time>
      </trkpt>
      <trkpt lat="45.59199" lon="3.8386">
        <ele>1342</ele>
        <time>2024-08-01T13:45:03Z</time>
      </trkpt>
      <trkpt lat="45.59181" lon="3.83737">
        <ele>1340</ele>
        <time>2024-08-01T13:46:13Z</time>
      </trkpt>
      <trkpt lat="45.59171" lon="3.83694">
        <ele>1341</ele>
        <time>2024-08-01T13:46:38Z</time>
      </trkpt>
      <trkpt lat="45.59169" lon="3.83651">
        <ele>1338</ele>
        <time>2024-08-01T13:47:03Z</time>
      </trkpt>
      <trkpt lat="45.59159" lon="3.83575">
        <ele>1334</ele>
        <time>2024-08-01T13:47:46Z</time>
      </trkpt>
      <trkpt lat="45.59159" lon="3.83541">
        <ele>1331</ele>
        <time>2024-08-01T13:48:05Z</time>
      </trkpt>
      <trkpt lat="45.59155" lon="3.83484">
        <ele>1326</ele>
        <time>2024-08-01T13:48:37Z</time>
      </trkpt>
      <trkpt lat="45.59144" lon="3.83435">
        <ele>1323</ele>
        <time>2024-08-01T13:49:06Z</time>
      </trkpt>
      <trkpt lat="45.59126" lon="3.83396">
        <ele>1324</ele>
        <time>2024-08-01T13:49:32Z</time>
      </trkpt>
      <trkpt lat="45.59102" lon="3.8336">
        <ele>1325</ele>
        <time>2024-08-01T13:50:00Z</time>
      </trkpt>
      <trkpt lat="45.59083" lon="3.83345">
        <ele>1329</ele>
        <time>2024-08-01T13:50:17Z</time>
      </trkpt>
      <trkpt lat="45.59074" lon="3.83328">
        <ele>1327</ele>
        <time>2024-08-01T13:50:29Z</time>
      </trkpt>
      <trkpt lat="45.5906" lon="3.83318">
        <ele>1328</ele>
        <time>2024-08-01T13:50:42Z</time>
      </trkpt>
      <trkpt lat="45.59003" lon="3.83259">
        <ele>1329</ele>
        <time>2024-08-01T13:51:38Z</time>
      </trkpt>
      <trkpt lat="45.58978" lon="3.83237">
        <ele>1325</ele>
        <time>2024-08-01T13:52:02Z</time>
      </trkpt>
      <trkpt lat="45.58962" lon="3.8323">
        <ele>1324</ele>
        <time>2024-08-01T13:52:15Z</time>
      </trkpt>
      <trkpt lat="45.58948" lon="3.83237">
        <ele>1326</ele>
        <time>2024-08-01T13:52:27Z</time>
      </trkpt>
      <trkpt lat="45.58923" lon="3.83261">
        <ele>1331</ele>
        <time>2024-08-01T13:52:51Z</time>
      </trkpt>
      <trkpt lat="45.58942" lon="3.83278">
        <ele>1335</ele>
        <time>2024-08-01T13:53:09Z</time>
      </trkpt>
      <trkpt lat="45.58923" lon="3.83261">
        <ele>1331</ele>
        <time>2024-08-01T13:53:27Z</time>
      </trkpt>
      <trkpt lat="45.58905" lon="3.8325">
        <ele>1328</ele>
        <time>2024-08-01T13:53:43Z</time>
      </trkpt>
      <trkpt lat="45.58881" lon="3.83223">
        <ele>1320</ele>
        <time>2024-08-01T13:54:07Z</time>
      </trkpt>
      <trkpt lat="45.58862" lon="3.83209">
        <ele>1315</ele>
        <time>2024-08-01T13:54:24Z</time>
      </trkpt>
      <trkpt lat="45.58841" lon="3.83202">
        <ele>1312</ele>
        <time>2024-08-01T13:54:41Z</time>
      </trkpt>
      <trkpt lat="45.58836" lon="3.83205">
        <ele>1312</ele>
        <time>2024-08-01T13:54:46Z</time>
      </trkpt>
      <trkpt lat="45.58806" lon="3.83211">
        <ele>1312</ele>
        <time>2024-08-01T13:55:10Z</time>
      </trkpt>
      <trkpt lat="45.58793" lon="3.83209">
        <ele>1310</ele>
        <time>2024-08-01T13:55:21Z</time>
      </trkpt>
      <trkpt lat="45.5877" lon="3.83199">
        <ele>1306</ele>
        <time>2024-08-01T13:55:40Z</time>
      </trkpt>
      <trkpt lat="45.58753" lon="3.83194">
        <ele>1304</ele>
        <time>2024-08-01T13:55:54Z</time>
      </trkpt>
      <trkpt lat="45.5871" lon="3.83187">
        <ele>1301</ele>
        <time>2024-08-01T13:56:28Z</time>
      </trkpt>
      <trkpt lat="45.58653" lon="3.83173">
        <ele>1297</ele>
        <time>2024-08-01T13:57:15Z</time>
      </trkpt>
      <trkpt lat="45.58628" lon="3.83165">
        <ele>1295</ele>
        <time>2024-08-01T13:57:35Z</time>
      </trkpt>
      <trkpt lat="45.58603" lon="3.83169">
        <ele>1294</ele>
        <time>2024-08-01T13:57:55Z</time>
      </trkpt>
      <trkpt lat="45.58589" lon="3.83176">
        <ele>1295</ele>
        <time>2024-08-01T13:58:07Z</time>
      </trkpt>
      <trkpt lat="45.58555" lon="3.832">
        <ele>1296</ele>
        <time>2024-08-01T13:58:38Z</time>
      </trkpt>
      <trkpt lat="45.58537" lon="3.83221">
        <ele>1298</ele>
        <time>2024-08-01T13:58:56Z</time>
      </trkpt>
      <trkpt lat="45.58534" lon="3.83229">
        <ele>1299</ele>
        <time>2024-08-01T13:59:01Z</time>
      </trkpt>
      <trkpt lat="45.58531" lon="3.83237">
        <ele>1300</ele>
        <time>2024-08-01T13:59:06Z</time>
      </trkpt>
      <trkpt lat="45.5853" lon="3.83248">
        <ele>1302</ele>
        <time>2024-08-01T13:59:13Z</time>
      </trkpt>
      <trkpt lat="45.58531" lon="3.83269">
        <ele>1305</ele>
        <time>2024-08-01T13:59:24Z</time>
      </trkpt>
      <trkpt lat="45.5853" lon="3.83292">
        <ele>1309</ele>
        <time>2024-08-01T13:59:37Z</time>
      </trkpt>
      <trkpt lat="45.58526" lon="3.83309">
        <ele>1311</ele>
        <time>2024-08-01T13:59:47Z</time>
      </trkpt>
      <trkpt lat="45.58524" lon="3.8334">
        <ele>1315</ele>
        <time>2024-08-01T14:00:05Z</time>
      </trkpt>
      <trkpt lat="45.58521" lon="3.83354">
        <ele>1317</ele>
        <time>2024-08-01T14:00:13Z</time>
      </trkpt>
      <trkpt lat="45.58512" lon="3.83375">
        <ele>1319</ele>
        <time>2024-08-01T14:00:27Z</time>
      </trkpt>
      <trkpt lat="45.585" lon="3.83398">
        <ele>1321</ele>
        <time>2024-08-01T14:00:43Z</time>
      </trkpt>
      <trkpt lat="45.58489" lon="3.83424">
        <ele>1322</ele>
        <time>2024-08-01T14:01:00Z</time>
      </trkpt>
      <trkpt lat="45.58481" lon="3.83455">
        <ele>1324</ele>
        <time>2024-08-01T14:01:18Z</time>
      </trkpt>
      <trkpt lat="45.58477" lon="3.83479">
        <ele>1324</ele>
        <time>2024-08-01T14:01:32Z</time>
      </trkpt>
      <trkpt lat="45.58478" lon="3.83508">
        <ele>1326</ele>
        <time>2024-08-01T14:01:48Z</time>
      </trkpt>
      <trkpt lat="45.58481" lon="3.83523">
        <ele>1327</ele>
        <time>2024-08-01T14:01:57Z</time>
      </trkpt>
      <trkpt lat="45.58492" lon="3.8354">
        <ele>1330</ele>
        <time>2024-08-01T14:02:10Z</time>
      </trkpt>
      <trkpt lat="45.58505" lon="3.8355">
        <ele>1332</ele>
        <time>2024-08-01T14:02:22Z</time>
      </trkpt>
      <trkpt lat="45.58512" lon="3.8355">
        <ele>1333</ele>
        <time>2024-08-01T14:02:28Z</time>
      </trkpt>
      <trkpt lat="45.58521" lon="3.83547">
        <ele>1334</ele>
        <time>2024-08-01T14:02:35Z</time>
      </trkpt>
      <trkpt lat="45.58554" lon="3.83519">
        <ele>1336</ele>
        <time>2024-08-01T14:03:06Z</time>
      </trkpt>
      <trkpt lat="45.5857" lon="3.83511">
        <ele>1337</ele>
        <time>2024-08-01T14:03:19Z</time>
      </trkpt>
      <trkpt lat="45.58584" lon="3.83508">
        <ele>1339</ele>
        <time>2024-08-01T14:03:31Z</time>
      </trkpt>
      <trkpt lat="45.58615" lon="3.83508">
        <ele>1342</ele>
        <time>2024-08-01T14:03:55Z</time>
      </trkpt>
      <trkpt lat="45.58627" lon="3.83515">
        <ele>1343</ele>
        <time>2024-08-01T14:04:06Z</time>
      </trkpt>
      <trkpt lat="45.58644" lon="3.83519">
        <ele>1345</ele>
        <time>2024-08-01T14:04:20Z</time>
      </trkpt>
      <trkpt lat="45.58635" lon="3.83541">
        <ele>1345</ele>
        <time>2024-08-01T14:04:34Z</time>
      </trkpt>
      <trkpt lat="45.5863" lon="3.83562">
        <ele>1346</ele>
        <time>2024-08-01T14:04:46Z</time>
      </trkpt>
      <trkpt lat="45.5862" lon="3.83587">
        <ele>1346</ele>
        <time>2024-08-01T14:05:02Z</time>
      </trkpt>
      <trkpt lat="45.5862" lon="3.836">
        <ele>1347</ele>
        <time>2024-08-01T14:05:10Z</time>
      </trkpt>
      <trkpt lat="45.58626" lon="3.83608">
        <ele>1347</ele>
        <time>2024-08-01T14:05:16Z</time>
      </trkpt>
      <trkpt lat="45.58659" lon="3.83633">
        <ele>1352</ele>
        <time>2024-08-01T14:05:46Z</time>
      </trkpt>
      <trkpt lat="45.58668" lon="3.83645">
        <ele>1353</ele>
        <time>2024-08-01T14:05:56Z</time>
      </trkpt>
      <trkpt lat="45.58686" lon="3.837">
        <ele>1356</ele>
        <time>2024-08-01T14:06:30Z</time>
      </trkpt>
      <trkpt lat="45.58685" lon="3.83713">
        <ele>1357</ele>
        <time>2024-08-01T14:06:37Z</time>
      </trkpt>
      <trkpt lat="45.58684" lon="3.83721">
        <ele>1357</ele>
        <time>2024-08-01T14:06:42Z</time>
      </trkpt>
      <trkpt lat="45.58673" lon="3.83788">
        <ele>1358</ele>
        <time>2024-08-01T14:07:21Z</time>
      </trkpt>
      <trkpt lat="45.58654" lon="3.83896">
        <ele>1361</ele>
        <time>2024-08-01T14:08:23Z</time>
      </trkpt>
      <trkpt lat="45.5865" lon="3.84022">
        <ele>1367</ele>
        <time>2024-08-01T14:09:34Z</time>
      </trkpt>
      <trkpt lat="45.58645" lon="3.84064">
        <ele>1369</ele>
        <time>2024-08-01T14:09:58Z</time>
      </trkpt>
      <trkpt lat="45.58641" lon="3.84085">
        <ele>1370</ele>
        <time>2024-08-01T14:10:10Z</time>
      </trkpt>
      <trkpt lat="45.58625" lon="3.84126">
        <ele>1371</ele>
        <time>2024-08-01T14:10:36Z</time>
      </trkpt>
      <trkpt lat="45.58597" lon="3.84228">
        <ele>1374</ele>
        <time>2024-08-01T14:11:37Z</time>
      </trkpt>
      <trkpt lat="45.58577" lon="3.84295">
        <ele>1375</ele>
        <time>2024-08-01T14:12:18Z</time>
      </trkpt>
      <trkpt lat="45.58568" lon="3.84315">
        <ele>1376</ele>
        <time>2024-08-01T14:12:32Z</time>
      </trkpt>
      <trkpt lat="45.58549" lon="3.84349">
        <ele>1377</ele>
        <time>2024-08-01T14:12:56Z</time>
      </trkpt>
      <trkpt lat="45.58542" lon="3.84364">
        <ele>1377</ele>
        <time>2024-08-01T14:13:06Z</time>
      </trkpt>
      <trkpt lat="45.58537" lon="3.84383">
        <ele>1378</ele>
        <time>2024-08-01T14:13:17Z</time>
      </trkpt>
      <trkpt lat="45.58533" lon="3.84431">
        <ele>1381</ele>
        <time>2024-08-01T14:13:44Z</time>
      </trkpt>
      <trkpt lat="45.58535" lon="3.84482">
        <ele>1382</ele>
        <time>2024-08-01T14:14:13Z</time>
      </trkpt>
      <trkpt lat="45.58537" lon="3.84491">
        <ele>1382</ele>
        <time>2024-08-01T14:14:18Z</time>
      </trkpt>
      <trkpt lat="45.5853" lon="3.8449">
        <ele>1382</ele>
        <time>2024-08-01T14:14:24Z</time>
      </trkpt>
      <trkpt lat="45.58519" lon="3.84487">
        <ele>1382</ele>
        <time>2024-08-01T14:14:33Z</time>
      </trkpt>
      <trkpt lat="45.58475" lon="3.84492">
        <ele>1384</ele>
        <time>2024-08-01T14:15:08Z</time>
      </trkpt>
      <trkpt lat="45.58454" lon="3.84479">
        <ele>1384</ele>
        <time>2024-08-01T14:15:27Z</time>
      </trkpt>
      <trkpt lat="45.58022" lon="3.84319">
        <ele>1365</ele>
        <time>2024-08-01T14:21:24Z</time>
      </trkpt>
      <trkpt lat="45.57925" lon="3.84286">
        <ele>1360</ele>
        <time>2024-08-01T14:22:44Z</time>
      </trkpt>
      <trkpt lat="45.57865" lon="3.84263">
        <ele>1357</ele>
        <time>2024-08-01T14:23:34Z</time>
      </trkpt>
      <trkpt lat="45.57842" lon="3.84247">
        <ele>1356</ele>
        <time>2024-08-01T14:23:54Z</time>
      </trkpt>
      <trkpt lat="45.57829" lon="3.8424">
        <ele>1355</ele>
        <time>2024-08-01T14:24:05Z</time>
      </trkpt>
      <trkpt lat="45.57769" lon="3.84222">
        <ele>1355</ele>
        <time>2024-08-01T14:24:54Z</time>
      </trkpt>
      <trkpt lat="45.57666" lon="3.84161">
        <ele>1353</ele>
        <time>2024-08-01T14:26:24Z</time>
      </trkpt>
      <trkpt lat="45.57512" lon="3.84053">
        <ele>1352</ele>
        <time>2024-08-01T14:28:41Z</time>
      </trkpt>
      <trkpt lat="45.57473" lon="3.84022">
        <ele>1349</ele>
        <time>2024-08-01T14:29:17Z</time>
      </trkpt>
      <trkpt lat="45.5744" lon="3.84009">
        <ele>1347</ele>
        <time>2024-08-01T14:29:44Z</time>
      </trkpt>
      <trkpt lat="45.5742" lon="3.84013">
        <ele>1346</ele>
        <time>2024-08-01T14:30:00Z</time>
      </trkpt>
      <trkpt lat="45.57395" lon="3.84008">
        <ele>1346</ele>
        <time>2024-08-01T14:30:20Z</time>
      </trkpt>
      <trkpt lat="45.57252" lon="3.83967">
        <ele>1358</ele>
        <time>2024-08-01T14:32:17Z</time>
      </trkpt>
      <trkpt lat="45.57164" lon="3.83944">
        <ele>1369</ele>
        <time>2024-08-01T14:33:29Z</time>
      </trkpt>
      <trkpt lat="45.5713" lon="3.83949">
        <ele>1369</ele>
        <time>2024-08-01T14:33:56Z</time>
      </trkpt>
      <trkpt lat="45.57013" lon="3.83927">
        <ele>1366</ele>
        <time>2024-08-01T14:35:31Z</time>
      </trkpt>
      <trkpt lat="45.56934" lon="3.83909">
        <ele>1360</ele>
        <time>2024-08-01T14:36:35Z</time>
      </trkpt>
      <trkpt lat="45.56825" lon="3.83897">
        <ele>1355</ele>
        <time>2024-08-01T14:38:02Z</time>
      </trkpt>
      <trkpt lat="45.56666" lon="3.83867">
        <ele>1351</ele>
        <time>2024-08-01T14:40:11Z</time>
      </trkpt>
      <trkpt lat="45.56663" lon="3.83877">
        <ele>1351</ele>
        <time>2024-08-01T14:40:17Z</time>
      </trkpt>
      <trkpt lat="45.56551" lon="3.84343">
        <ele>1329</ele>
        <time>2024-08-01T14:44:53Z</time>
      </trkpt>
      <trkpt lat="45.56477" lon="3.84328">
        <ele>1326</ele>
        <time>2024-08-01T14:45:53Z</time>
      </trkpt>
      <trkpt lat="45.56446" lon="3.84313">
        <ele>1325</ele>
        <time>2024-08-01T14:46:19Z</time>
      </trkpt>
      <trkpt lat="45.56425" lon="3.84315">
        <ele>1323</ele>
        <time>2024-08-01T14:46:36Z</time>
      </trkpt>
      <trkpt lat="45.56349" lon="3.84342">
        <ele>1324</ele>
        <time>2024-08-01T14:47:39Z</time>
      </trkpt>
      <trkpt lat="45.56274" lon="3.84364">
        <ele>1321</ele>
        <time>2024-08-01T14:48:40Z</time>
      </trkpt>
      <trkpt lat="45.56246" lon="3.84361">
        <ele>1320</ele>
        <time>2024-08-01T14:49:02Z</time>
      </trkpt>
      <trkpt lat="45.5611" lon="3.84323">
        <ele>1311</ele>
        <time>2024-08-01T14:50:53Z</time>
      </trkpt>
      <trkpt lat="45.56096" lon="3.84322">
        <ele>1311</ele>
        <time>2024-08-01T14:51:05Z</time>
      </trkpt>
      <trkpt lat="45.56086" lon="3.84331">
        <ele>1309</ele>
        <time>2024-08-01T14:51:14Z</time>
      </trkpt>
      <trkpt lat="45.56099" lon="3.8437">
        <ele>1308</ele>
        <time>2024-08-01T14:51:38Z</time>
      </trkpt>
      <trkpt lat="45.56107" lon="3.84469">
        <ele>1310</ele>
        <time>2024-08-01T14:52:34Z</time>
      </trkpt>
      <trkpt lat="45.56102" lon="3.84497">
        <ele>1310</ele>
        <time>2024-08-01T14:52:50Z</time>
      </trkpt>
      <trkpt lat="45.56087" lon="3.84523">
        <ele>1311</ele>
        <time>2024-08-01T14:53:09Z</time>
      </trkpt>
      <trkpt lat="45.55962" lon="3.84633">
        <ele>1315</ele>
        <time>2024-08-01T14:55:07Z</time>
      </trkpt>
      <trkpt lat="45.55868" lon="3.84732">
        <ele>1316</ele>
        <time>2024-08-01T14:56:40Z</time>
      </trkpt>
      <trkpt lat="45.55849" lon="3.84757">
        <ele>1316</ele>
        <time>2024-08-01T14:57:01Z</time>
      </trkpt>
      <trkpt lat="45.55796" lon="3.84844">
        <ele>1319</ele>
        <time>2024-08-01T14:58:06Z</time>
      </trkpt>
      <trkpt lat="45.55776" lon="3.84884">
        <ele>1320</ele>
        <time>2024-08-01T14:58:33Z</time>
      </trkpt>
      <trkpt lat="45.55676" lon="3.85117">
        <ele>1323</ele>
        <time>2024-08-01T15:01:06Z</time>
      </trkpt>
      <trkpt lat="45.5563" lon="3.8525">
        <ele>1325</ele>
        <time>2024-08-01T15:02:30Z</time>
      </trkpt>
      <trkpt lat="45.5554" lon="3.85481">
        <ele>1326</ele>
        <time>2024-08-01T15:04:58Z</time>
      </trkpt>
      <trkpt lat="45.55528" lon="3.8552">
        <ele>1325</ele>
        <time>2024-08-01T15:05:22Z</time>
      </trkpt>
      <trkpt lat="45.55517" lon="3.85567">
        <ele>1325</ele>
        <time>2024-08-01T15:05:49Z</time>
      </trkpt>
      <trkpt lat="45.55512" lon="3.85608">
        <ele>1326</ele>
        <time>2024-08-01T15:06:13Z</time>
      </trkpt>
      <trkpt lat="45.5551" lon="3.85654">
        <ele>1327</ele>
        <time>2024-08-01T15:06:39Z</time>
      </trkpt>
      <trkpt lat="45.5551" lon="3.85814">
        <ele>1328</ele>
        <time>2024-08-01T15:08:08Z</time>
      </trkpt>
      <trkpt lat="45.55512" lon="3.85847">
        <ele>1328</ele>
        <time>2024-08-01T15:08:27Z</time>
      </trkpt>
      <trkpt lat="45.55518" lon="3.85882">
        <ele>1328</ele>
        <time>2024-08-01T15:08:47Z</time>
      </trkpt>
      <trkpt lat="45.55529" lon="3.85917">
        <ele>1329</ele>
        <time>2024-08-01T15:09:09Z</time>
      </trkpt>
      <trkpt lat="45.55542" lon="3.85942">
        <ele>1328</ele>
        <time>2024-08-01T15:09:26Z</time>
      </trkpt>
      <trkpt lat="45.55552" lon="3.85956">
        <ele>1328</ele>
        <time>2024-08-01T15:09:37Z</time>
      </trkpt>
      <trkpt lat="45.55568" lon="3.85972">
        <ele>1328</ele>
        <time>2024-08-01T15:09:53Z</time>
      </trkpt>
      <trkpt lat="45.55609" lon="3.86">
        <ele>1327</ele>
        <time>2024-08-01T15:10:29Z</time>
      </trkpt>
      <trkpt lat="45.55631" lon="3.86023">
        <ele>1327</ele>
        <time>2024-08-01T15:10:51Z</time>
      </trkpt>
      <trkpt lat="45.55642" lon="3.86042">
        <ele>1326</ele>
        <time>2024-08-01T15:11:05Z</time>
      </trkpt>
      <trkpt lat="45.55649" lon="3.86064">
        <ele>1325</ele>
        <time>2024-08-01T15:11:18Z</time>
      </trkpt>
      <trkpt lat="45.55652" lon="3.86091">
        <ele>1324</ele>
        <time>2024-08-01T15:11:34Z</time>
      </trkpt>
      <trkpt lat="45.55651" lon="3.86119">
        <ele>1325</ele>
        <time>2024-08-01T15:11:49Z</time>
      </trkpt>
      <trkpt lat="45.55644" lon="3.86147">
        <ele>1326</ele>
        <time>2024-08-01T15:12:06Z</time>
      </trkpt>
      <trkpt lat="45.55626" lon="3.8617">
        <ele>1326</ele>
        <time>2024-08-01T15:12:25Z</time>
      </trkpt>
      <trkpt lat="45.55603" lon="3.86186">
        <ele>1326</ele>
        <time>2024-08-01T15:12:46Z</time>
      </trkpt>
      <trkpt lat="45.55559" lon="3.86204">
        <ele>1327</ele>
        <time>2024-08-01T15:13:23Z</time>
      </trkpt>
      <trkpt lat="45.55489" lon="3.86215">
        <ele>1326</ele>
        <time>2024-08-01T15:14:19Z</time>
      </trkpt>
      <trkpt lat="45.55382" lon="3.86248">
        <ele>1322</ele>
        <time>2024-08-01T15:15:47Z</time>
      </trkpt>
      <trkpt lat="45.55337" lon="3.86277">
        <ele>1323</ele>
        <time>2024-08-01T15:16:26Z</time>
      </trkpt>
      <trkpt lat="45.55301" lon="3.86305">
        <ele>1324</ele>
        <time>2024-08-01T15:16:59Z</time>
      </trkpt>
      <trkpt lat="45.55263" lon="3.86344">
        <ele>1324</ele>
        <time>2024-08-01T15:17:36Z</time>
      </trkpt>
      <trkpt lat="45.55234" lon="3.86381">
        <ele>1325</ele>
        <time>2024-08-01T15:18:08Z</time>
      </trkpt>
      <trkpt lat="45.55222" lon="3.86458">
        <ele>1325</ele>
        <time>2024-08-01T15:18:52Z</time>
      </trkpt>
      <trkpt lat="45.55229" lon="3.86528">
        <ele>1324</ele>
        <time>2024-08-01T15:19:31Z</time>
      </trkpt>
      <trkpt lat="45.55246" lon="3.86593">
        <ele>1323</ele>
        <time>2024-08-01T15:20:10Z</time>
      </trkpt>
      <trkpt lat="45.55284" lon="3.86665">
        <ele>1316</ele>
        <time>2024-08-01T15:21:01Z</time>
      </trkpt>
      <trkpt lat="45.55331" lon="3.86705">
        <ele>1316</ele>
        <time>2024-08-01T15:21:45Z</time>
      </trkpt>
      <trkpt lat="45.55383" lon="3.86721">
        <ele>1315</ele>
        <time>2024-08-01T15:22:27Z</time>
      </trkpt>
      <trkpt lat="45.5548" lon="3.86732">
        <ele>1318</ele>
        <time>2024-08-01T15:23:45Z</time>
      </trkpt>
      <trkpt lat="45.55578" lon="3.86733">
        <ele>1320</ele>
        <time>2024-08-01T15:25:04Z</time>
      </trkpt>
      <trkpt lat="45.55776" lon="3.86727">
        <ele>1313</ele>
        <time>2024-08-01T15:27:42Z</time>
      </trkpt>
      <trkpt lat="45.55828" lon="3.86717">
        <ele>1312</ele>
        <time>2024-08-01T15:28:24Z</time>
      </trkpt>
      <trkpt lat="45.55855" lon="3.867">
        <ele>1314</ele>
        <time>2024-08-01T15:28:48Z</time>
      </trkpt>
      <trkpt lat="45.55892" lon="3.86693">
        <ele>1314</ele>
        <time>2024-08-01T15:29:18Z</time>
      </trkpt>
      <trkpt lat="45.5591" lon="3.86698">
        <ele>1313</ele>
        <time>2024-08-01T15:29:32Z</time>
      </trkpt>
      <trkpt lat="45.55919" lon="3.867">
        <ele>1313</ele>
        <time>2024-08-01T15:29:40Z</time>
      </trkpt>
      <trkpt lat="45.5594" lon="3.86723">
        <ele>1310</ele>
        <time>2024-08-01T15:30:01Z</time>
      </trkpt>
      <trkpt lat="45.55967" lon="3.86762">
        <ele>1306</ele>
        <time>2024-08-01T15:30:32Z</time>
      </trkpt>
      <trkpt lat="45.5606" lon="3.8688">
        <ele>1296</ele>
        <time>2024-08-01T15:32:11Z</time>
      </trkpt>
      <trkpt lat="45.56097" lon="3.86903">
        <ele>1294</ele>
        <time>2024-08-01T15:32:44Z</time>
      </trkpt>
      <trkpt lat="45.56126" lon="3.86912">
        <ele>1292</ele>
        <time>2024-08-01T15:33:07Z</time>
      </trkpt>
      <trkpt lat="45.56154" lon="3.86886">
        <ele>1295</ele>
        <time>2024-08-01T15:33:34Z</time>
      </trkpt>
      <trkpt lat="45.56185" lon="3.86885">
        <ele>1295</ele>
        <time>2024-08-01T15:33:59Z</time>
      </trkpt>
      <trkpt lat="45.56202" lon="3.86889">
        <ele>1294</ele>
        <time>2024-08-01T15:34:13Z</time>
      </trkpt>
      <trkpt lat="45.56293" lon="3.86865">
        <ele>1293</ele>
        <time>2024-08-01T15:35:27Z</time>
      </trkpt>
      <trkpt lat="45.56353" lon="3.86845">
        <ele>1292</ele>
        <time>2024-08-01T15:36:16Z</time>
      </trkpt>
      <trkpt lat="45.56406" lon="3.86811">
        <ele>1292</ele>
        <time>2024-08-01T15:37:03Z</time>
      </trkpt>
      <trkpt lat="45.56456" lon="3.86803">
        <ele>1287</ele>
        <time>2024-08-01T15:37:43Z</time>
      </trkpt>
      <trkpt lat="45.56501" lon="3.86786">
        <ele>1286</ele>
        <time>2024-08-01T15:38:20Z</time>
      </trkpt>
      <trkpt lat="45.56537" lon="3.86805">
        <ele>1279</ele>
        <time>2024-08-01T15:38:51Z</time>
      </trkpt>
      <trkpt lat="45.56562" lon="3.86833">
        <ele>1272</ele>
        <time>2024-08-01T15:39:16Z</time>
      </trkpt>
      <trkpt lat="45.56589" lon="3.86874">
        <ele>1269</ele>
        <time>2024-08-01T15:39:48Z</time>
      </trkpt>
      <trkpt lat="45.56592" lon="3.86888">
        <ele>1268</ele>
        <time>2024-08-01T15:39:56Z</time>
      </trkpt>
      <trkpt lat="45.56597" lon="3.86885">
        <ele>1268</ele>
        <time>2024-08-01T15:40:01Z</time>
      </trkpt>
      <trkpt lat="45.56599" lon="3.86875">
        <ele>1269</ele>
        <time>2024-08-01T15:40:06Z</time>
      </trkpt>
      <trkpt lat="45.56595" lon="3.8686">
        <ele>1269</ele>
        <time>2024-08-01T15:40:15Z</time>
      </trkpt>
      <trkpt lat="45.56599" lon="3.86875">
        <ele>1269</ele>
        <time>2024-08-01T15:40:24Z</time>
      </trkpt>
      <trkpt lat="45.56597" lon="3.86885">
        <ele>1268</ele>
        <time>2024-08-01T15:40:30Z</time>
      </trkpt>
      <trkpt lat="45.56592" lon="3.86888">
        <ele>1268</ele>
        <time>2024-08-01T15:40:35Z</time>
      </trkpt>
      <trkpt lat="45.56592" lon="3.86917">
        <ele>1266</ele>
        <time>2024-08-01T15:40:51Z</time>
      </trkpt>
      <trkpt lat="45.56594" lon="3.86943">
        <ele>1264</ele>
        <time>2024-08-01T15:41:05Z</time>
      </trkpt>
      <trkpt lat="45.56602" lon="3.86964">
        <ele>1262</ele>
        <time>2024-08-01T15:41:19Z</time>
      </trkpt>
      <trkpt lat="45.56612" lon="3.86976">
        <ele>1261</ele>
        <time>2024-08-01T15:41:29Z</time>
      </trkpt>
      <trkpt lat="45.56622" lon="3.8699">
        <ele>1260</ele>
        <time>2024-08-01T15:41:41Z</time>
      </trkpt>
      <trkpt lat="45.56637" lon="3.87004">
        <ele>1258</ele>
        <time>2024-08-01T15:41:55Z</time>
      </trkpt>
      <trkpt lat="45.56648" lon="3.87011">
        <ele>1257</ele>
        <time>2024-08-01T15:42:04Z</time>
      </trkpt>
      <trkpt lat="45.56671" lon="3.87018">
        <ele>1255</ele>
        <time>2024-08-01T15:42:23Z</time>
      </trkpt>
      <trkpt lat="45.56687" lon="3.87017">
        <ele>1253</ele>
        <time>2024-08-01T15:42:36Z</time>
      </trkpt>
      <trkpt lat="45.56702" lon="3.87015">
        <ele>1252</ele>
        <time>2024-08-01T15:42:48Z</time>
      </trkpt>
      <trkpt lat="45.56728" lon="3.87003">
        <ele>1250</ele>
        <time>2024-08-01T15:43:10Z</time>
      </trkpt>
      <trkpt lat="45.56773" lon="3.86995">
        <ele>1247</ele>
        <time>2024-08-01T15:43:46Z</time>
      </trkpt>
      <trkpt lat="45.56782" lon="3.86999">
        <ele>1246</ele>
        <time>2024-08-01T15:43:54Z</time>
      </trkpt>
      <trkpt lat="45.56787" lon="3.87005">
        <ele>1245</ele>
        <time>2024-08-01T15:43:59Z</time>
      </trkpt>
      <trkpt lat="45.56791" lon="3.87017">
        <ele>1244</ele>
        <time>2024-08-01T15:44:07Z</time>
      </trkpt>
      <trkpt lat="45.56795" lon="3.87067">
        <ele>1236</ele>
        <time>2024-08-01T15:44:35Z</time>
      </trkpt>
      <trkpt lat="45.568" lon="3.87086">
        <ele>1233</ele>
        <time>2024-08-01T15:44:46Z</time>
      </trkpt>
      <trkpt lat="45.56819" lon="3.87095">
        <ele>1230</ele>
        <time>2024-08-01T15:45:02Z</time>
      </trkpt>
      <trkpt lat="45.56835" lon="3.87136">
        <ele>1219</ele>
        <time>2024-08-01T15:45:29Z</time>
      </trkpt>
      <trkpt lat="45.56845" lon="3.87149">
        <ele>1215</ele>
        <time>2024-08-01T15:45:39Z</time>
      </trkpt>
      <trkpt lat="45.56853" lon="3.87156">
        <ele>1213</ele>
        <time>2024-08-01T15:45:47Z</time>
      </trkpt>
      <trkpt lat="45.56869" lon="3.87162">
        <ele>1211</ele>
        <time>2024-08-01T15:46:00Z</time>
      </trkpt>
      <trkpt lat="45.56902" lon="3.87167">
        <ele>1209</ele>
        <time>2024-08-01T15:46:27Z</time>
      </trkpt>
      <trkpt lat="45.56931" lon="3.87175">
        <ele>1207</ele>
        <time>2024-08-01T15:46:50Z</time>
      </trkpt>
      <trkpt lat="45.56971" lon="3.87189">
        <ele>1203</ele>
        <time>2024-08-01T15:47:23Z</time>
      </trkpt>
      <trkpt lat="45.57015" lon="3.87227">
        <ele>1194</ele>
        <time>2024-08-01T15:48:04Z</time>
      </trkpt>
      <trkpt lat="45.57033" lon="3.87238">
        <ele>1190</ele>
        <time>2024-08-01T15:48:20Z</time>
      </trkpt>
      <trkpt lat="45.57063" lon="3.87265">
        <ele>1183</ele>
        <time>2024-08-01T15:48:49Z</time>
      </trkpt>
      <trkpt lat="45.57145" lon="3.87305">
        <ele>1165</ele>
        <time>2024-08-01T15:49:58Z</time>
      </trkpt>
      <trkpt lat="45.57166" lon="3.87309">
        <ele>1161</ele>
        <time>2024-08-01T15:50:15Z</time>
      </trkpt>
      <trkpt lat="45.57269" lon="3.87337">
        <ele>1154</ele>
        <time>2024-08-01T15:51:39Z</time>
      </trkpt>
      <trkpt lat="45.57288" lon="3.87337">
        <ele>1154</ele>
        <time>2024-08-01T15:51:54Z</time>
      </trkpt>
      <trkpt lat="45.57296" lon="3.87356">
        <ele>1156</ele>
        <time>2024-08-01T15:52:06Z</time>
      </trkpt>
      <trkpt lat="45.573" lon="3.87366">
        <ele>1157</ele>
        <time>2024-08-01T15:52:13Z</time>
      </trkpt>
      <trkpt lat="45.57307" lon="3.87385">
        <ele>1160</ele>
        <time>2024-08-01T15:52:25Z</time>
      </trkpt>
      <trkpt lat="45.57301" lon="3.87391">
        <ele>1160</ele>
        <time>2024-08-01T15:52:31Z</time>
      </trkpt>
      <trkpt lat="45.57337" lon="3.87357">
        <ele>1160</ele>
        <time>2024-08-01T15:53:05Z</time>
      </trkpt>
      <trkpt lat="45.57358" lon="3.87343">
        <ele>1160</ele>
        <time>2024-08-01T15:53:24Z</time>
      </trkpt>
      <trkpt lat="45.57416" lon="3.87316">
        <ele>1162</ele>
        <time>2024-08-01T15:54:13Z</time>
      </trkpt>
      <trkpt lat="45.57435" lon="3.87309">
        <ele>1163</ele>
        <time>2024-08-01T15:54:29Z</time>
      </trkpt>
      <trkpt lat="45.57469" lon="3.87304">
        <ele>1166</ele>
        <time>2024-08-01T15:54:56Z</time>
      </trkpt>
      <trkpt lat="45.57519" lon="3.87307">
        <ele>1169</ele>
        <time>2024-08-01T15:55:36Z</time>
      </trkpt>
      <trkpt lat="45.57582" lon="3.87281">
        <ele>1167</ele>
        <time>2024-08-01T15:56:28Z</time>
      </trkpt>
      <trkpt lat="45.5763" lon="3.8727">
        <ele>1167</ele>
        <time>2024-08-01T15:57:07Z</time>
      </trkpt>
      <trkpt lat="45.57651" lon="3.87263">
        <ele>1166</ele>
        <time>2024-08-01T15:57:25Z</time>
      </trkpt>
    </trkseg>
  </trk>
</gpx>